createdAt,value
2023-05-25T00:00:49.788Z,102733.84
2023-05-25T00:03:27.919Z,102737.44
2023-05-25T00:05:54.636Z,102730.63
2023-05-25T00:08:21.265Z,102735.94
2023-05-25T00:10:48.545Z,102733.53
2023-05-25T00:13:15.018Z,102733.59
2023-05-25T00:15:41.575Z,102732.84
2023-05-25T00:18:08.247Z,102732.16
2023-05-25T00:20:35.405Z,102744.50
2023-05-25T00:23:02.495Z,102740.31
2023-05-25T00:25:29.590Z,102746.56
2023-05-25T00:27:56.188Z,102742.28
2023-05-25T00:30:22.746Z,102748.53
2023-05-25T00:32:49.276Z,102745.16
2023-05-25T00:35:15.857Z,102754.72
2023-05-25T00:37:42.380Z,102754.81
2023-05-25T00:40:14.203Z,102764.47
2023-05-25T00:42:41.092Z,102765.38
2023-05-25T00:45:08.113Z,102761.16
2023-05-25T00:47:34.639Z,102753.34
2023-05-25T00:50:02.077Z,102761.22
2023-05-25T00:52:28.868Z,102763.91
2023-05-25T00:54:58.242Z,102761.34
2023-05-25T00:57:28.072Z,102758.88
2023-05-25T00:59:58.016Z,102765.84
2023-05-25T01:02:26.369Z,102762.47
2023-05-25T01:04:59.792Z,102759.97
2023-05-25T01:07:28.461Z,102760.06
2023-05-25T01:10:00.076Z,102756.66
2023-05-25T01:12:32.090Z,102764.53
2023-05-25T01:15:00.534Z,102766.38
2023-05-25T01:17:29.063Z,102773.41
2023-05-25T01:20:09.651Z,102772.53
2023-05-25T01:23:02.764Z,102774.41
2023-05-25T01:25:45.043Z,102775.38
2023-05-25T01:28:18.462Z,102772.84
2023-05-25T01:30:48.776Z,102770.28
2023-05-25T01:33:20.111Z,102780.72
2023-05-25T01:35:47.808Z,102781.69
2023-05-25T01:38:15.030Z,102773.06
2023-05-25T01:40:41.556Z,102771.38
2023-05-25T01:43:08.023Z,102772.34
2023-05-25T01:45:35.527Z,102775.88
2023-05-25T01:48:12.953Z,102774.16
2023-05-25T01:50:51.499Z,102782.91
2023-05-25T01:53:30.487Z,102785.56
2023-05-25T01:56:01.349Z,102785.66
2023-05-25T01:58:34.892Z,102784.81
2023-05-25T02:01:04.368Z,102785.72
2023-05-25T02:03:31.256Z,102792.69
2023-05-25T02:05:58.281Z,102796.25
2023-05-25T02:08:24.887Z,102793.63
2023-05-25T02:10:51.489Z,102791.09
2023-05-25T02:13:18.166Z,102784.19
2023-05-25T02:15:44.855Z,102792.06
2023-05-25T02:18:13.706Z,102782.53
2023-05-25T02:20:40.503Z,102796.47
2023-05-25T02:23:07.111Z,102784.41
2023-05-25T02:25:35.917Z,102787.06
2023-05-25T02:28:02.453Z,102781.91
2023-05-25T02:30:28.898Z,102785.44
2023-05-25T02:32:56.546Z,102785.53
2023-05-25T02:35:23.269Z,102780.38
2023-05-25T02:37:51.141Z,102791.69
2023-05-25T02:40:17.998Z,102790.84
2023-05-25T02:42:44.782Z,102793.47
2023-05-25T02:45:11.566Z,102792.63
2023-05-25T02:47:38.276Z,102799.59
2023-05-25T02:50:05.807Z,102808.34
2023-05-25T02:52:32.707Z,102801.44
2023-05-25T02:54:59.249Z,102797.13
2023-05-25T02:57:25.940Z,102799.72
2023-05-25T02:59:52.758Z,102805.84
2023-05-25T03:02:21.058Z,102803.22
2023-05-25T03:04:49.828Z,102809.34
2023-05-25T03:07:16.420Z,102806.78
2023-05-25T03:09:42.971Z,102810.22
2023-05-25T03:12:09.462Z,102806.78
2023-05-25T03:14:35.912Z,102816.38
2023-05-25T03:17:02.384Z,102814.59
2023-05-25T03:19:28.871Z,102818.94
2023-05-25T03:21:55.436Z,102823.28
2023-05-25T03:24:24.210Z,102831.03
2023-05-25T03:26:51.039Z,102823.25
2023-05-25T03:29:17.585Z,102819.84
2023-05-25T03:31:44.057Z,102821.59
2023-05-25T03:34:10.634Z,102823.38
2023-05-25T03:36:38.931Z,102826.88
2023-05-25T03:39:07.076Z,102835.56
2023-05-25T03:41:33.551Z,102831.28
2023-05-25T03:43:59.986Z,102826.13
2023-05-25T03:46:26.541Z,102822.66
2023-05-25T03:48:56.034Z,102825.31
2023-05-25T03:51:22.625Z,102823.59
2023-05-25T03:53:49.078Z,102826.22
2023-05-25T03:56:15.609Z,102827.09
2023-05-25T03:58:42.071Z,102826.25
2023-05-25T04:01:10.421Z,102822.81
2023-05-25T04:03:37.214Z,102830.69
2023-05-25T04:06:04.161Z,102835.03
2023-05-25T04:08:30.718Z,102834.19
2023-05-25T04:10:57.468Z,102831.53
2023-05-25T04:13:24.826Z,102833.25
2023-05-25T04:15:51.368Z,102828.91
2023-05-25T04:18:19.049Z,102833.22
2023-05-25T04:20:46.460Z,102838.41
2023-05-25T04:23:12.907Z,102847.91
2023-05-25T04:25:39.403Z,102846.97
2023-05-25T04:28:08.366Z,102850.41
2023-05-25T04:30:36.183Z,102855.53
2023-05-25T04:33:03.068Z,102858.09
2023-05-25T04:35:31.643Z,102853.72
2023-05-25T04:38:00.642Z,102857.19
2023-05-25T04:40:28.048Z,102862.28
2023-05-25T04:42:55.847Z,102858.78
2023-05-25T04:45:25.452Z,102860.41
2023-05-25T04:47:52.593Z,102858.59
2023-05-25T04:50:19.352Z,102868.91
2023-05-25T04:52:45.855Z,102866.22
2023-05-25T04:55:12.537Z,102863.50
2023-05-25T04:57:39.476Z,102872.06
2023-05-25T05:00:09.676Z,102877.97
2023-05-25T05:02:38.106Z,102876.97
2023-05-25T05:05:05.115Z,102877.66
2023-05-25T05:07:31.748Z,102884.38
2023-05-25T05:09:58.283Z,102877.28
2023-05-25T05:12:24.782Z,102883.19
2023-05-25T05:14:51.210Z,102878.66
2023-05-25T05:17:17.724Z,102875.81
2023-05-25T05:19:44.313Z,102883.53
2023-05-25T05:22:13.225Z,102885.06
2023-05-25T05:24:39.704Z,102878.91
2023-05-25T05:27:06.195Z,102881.50
2023-05-25T05:29:34.220Z,102887.50
2023-05-25T05:32:00.909Z,102887.19
2023-05-25T05:34:27.376Z,102899.06
2023-05-25T05:36:57.907Z,102891.03
2023-05-25T05:39:26.504Z,102894.34
2023-05-25T05:41:53.874Z,102888.03
2023-05-25T05:44:27.833Z,102899.97
2023-05-25T05:47:02.033Z,102898.63
2023-05-25T05:49:29.574Z,102900.19
2023-05-25T05:51:56.534Z,102898.78
2023-05-25T05:54:23.334Z,102902.63
2023-05-25T05:56:50.929Z,102904.09
2023-05-25T05:59:17.657Z,102911.25
2023-05-25T06:01:44.296Z,102917.34
2023-05-25T06:04:10.801Z,102922.44
2023-05-25T06:06:37.730Z,102918.53
2023-05-25T06:09:06.893Z,102917.94
2023-05-25T06:11:37.584Z,102925.34
2023-05-25T06:14:04.137Z,102926.38
2023-05-25T06:16:30.959Z,102932.72
2023-05-25T06:18:59.374Z,102928.50
2023-05-25T06:21:26.230Z,102926.84
2023-05-25T06:23:52.816Z,102932.88
2023-05-25T06:26:19.348Z,102926.09
2023-05-25T06:28:47.693Z,102933.13
2023-05-25T06:31:14.240Z,102928.72
2023-05-25T06:33:40.800Z,102937.25
2023-05-25T06:36:08.798Z,102935.41
2023-05-25T06:38:35.639Z,102936.09
2023-05-25T06:41:03.566Z,102930.59
2023-05-25T06:43:30.480Z,102935.63
2023-05-25T06:45:56.984Z,102944.09
2023-05-25T06:48:23.486Z,102943.16
2023-05-25T06:50:49.996Z,102942.41
2023-05-25T06:53:17.367Z,102938.84
2023-05-25T06:55:44.467Z,102945.25
2023-05-25T06:58:11.751Z,102936.34
2023-05-25T07:00:38.250Z,102943.94
2023-05-25T07:03:04.800Z,102948.97
2023-05-25T07:05:31.322Z,102955.09
2023-05-25T07:07:57.878Z,102961.84
2023-05-25T07:10:24.335Z,102961.38
2023-05-25T07:12:50.855Z,102965.09
2023-05-25T07:15:17.469Z,102966.72
2023-05-25T07:17:44.151Z,102969.97
2023-05-25T07:20:13.247Z,102966.22
2023-05-25T07:22:39.903Z,102969.31
2023-05-25T07:25:06.922Z,102970.69
2023-05-25T07:27:33.879Z,102965.25
2023-05-25T07:30:00.363Z,102968.31
2023-05-25T07:32:26.888Z,102969.88
2023-05-25T07:34:54.134Z,102971.47
2023-05-25T07:37:20.594Z,102971.44
2023-05-25T07:39:47.121Z,102970.56
2023-05-25T07:42:13.657Z,102975.06
2023-05-25T07:44:40.094Z,102974.31
2023-05-25T07:47:07.029Z,102973.19
2023-05-25T07:49:33.715Z,102978.19
2023-05-25T07:52:00.204Z,102984.97
2023-05-25T07:54:26.672Z,102978.72
2023-05-25T07:56:53.284Z,102984.84
2023-05-25T07:59:19.734Z,102989.09
2023-05-25T08:01:46.222Z,102994.41
2023-05-25T08:04:13.010Z,102992.66
2023-05-25T08:06:40.090Z,103002.97
2023-05-25T08:09:07.956Z,102996.53
2023-05-25T08:11:34.450Z,103002.44
2023-05-25T08:14:00.945Z,103002.28
2023-05-25T08:16:27.699Z,102994.25
2023-05-25T08:18:54.300Z,103009.78
2023-05-25T08:21:20.967Z,102990.88
2023-05-25T08:23:47.954Z,102998.22
2023-05-25T08:26:34.216Z,103009.38
2023-05-25T08:29:02.387Z,103005.38
2023-05-25T08:31:28.999Z,103015.31
2023-05-25T08:33:55.608Z,103019.28
2023-05-25T08:36:22.718Z,103012.16
2023-05-25T08:38:49.158Z,103019.06
2023-05-25T08:41:16.903Z,103022.28
2023-05-25T08:43:43.569Z,103016.00
2023-05-25T08:46:10.059Z,103010.69
2023-05-25T08:48:42.457Z,103007.97
2023-05-25T08:51:12.097Z,103004.25
2023-05-25T08:53:41.236Z,103010.63
2023-05-25T08:56:12.906Z,103003.34
2023-05-25T08:58:53.064Z,103007.78
2023-05-25T09:01:22.516Z,103008.50
2023-05-25T09:03:50.233Z,103007.88
2023-05-25T09:06:17.416Z,103003.72
2023-05-25T09:08:44.983Z,103007.63
2023-05-25T09:11:16.293Z,103001.34
2023-05-25T09:13:43.550Z,103010.00
2023-05-25T09:16:11.240Z,103001.75
2023-05-25T09:18:37.776Z,103003.22
2023-05-25T09:21:04.541Z,103009.31
2023-05-25T09:23:31.389Z,103006.16
2023-05-25T09:25:58.446Z,102993.84
2023-05-25T09:28:27.422Z,103001.75
2023-05-25T09:30:56.011Z,102993.50
2023-05-25T09:33:22.829Z,103004.53
2023-05-25T09:35:49.380Z,102995.63
2023-05-25T09:38:17.280Z,102994.69
2023-05-25T09:40:44.902Z,102992.19
2023-05-25T09:43:17.246Z,102992.53
2023-05-25T09:45:48.959Z,102992.53
2023-05-25T09:48:15.630Z,102990.03
2023-05-25T09:50:43.287Z,102991.09
2023-05-25T09:53:11.076Z,102991.44
2023-05-25T09:55:52.311Z,102989.75
2023-05-25T09:58:23.768Z,102998.97
2023-05-25T10:00:54.611Z,102992.03
2023-05-25T10:03:21.800Z,103008.00
2023-05-25T10:08:19.856Z,102995.28
2023-05-25T10:10:49.842Z,102994.72
2023-05-25T10:13:24.894Z,102987.78
2023-05-25T10:15:54.598Z,102993.84
2023-05-25T10:18:28.066Z,102996.22
2023-05-25T10:21:03.178Z,102994.22
2023-05-25T10:23:41.882Z,102995.91
2023-05-25T10:26:09.915Z,102999.88
2023-05-25T10:28:39.016Z,103002.72
2023-05-25T10:31:05.918Z,103008.84
2023-05-25T10:33:33.415Z,103007.84
2023-05-25T10:36:09.942Z,102999.59
2023-05-25T10:38:40.425Z,103015.81
2023-05-25T10:41:10.884Z,103021.31
2023-05-25T10:43:38.747Z,103013.41
2023-05-25T10:46:08.915Z,103003.66
2023-05-25T10:48:40.187Z,103013.63
2023-05-25T10:51:08.985Z,103003.03
2023-05-25T10:53:37.707Z,103001.00
2023-05-25T10:56:06.411Z,103001.94
2023-05-25T10:58:33.474Z,103009.03
2023-05-25T11:01:01.506Z,103003.63
2023-05-25T11:03:57.109Z,103007.28
2023-05-25T11:06:40.449Z,103005.72
2023-05-25T11:09:07.918Z,103008.06
2023-05-25T11:11:43.489Z,103006.50
2023-05-25T11:14:22.875Z,103003.91
2023-05-25T11:17:18.214Z,103013.03
2023-05-25T11:19:56.204Z,103002.38
2023-05-25T11:22:35.402Z,103000.28
2023-05-25T11:25:23.029Z,103028.84
2023-05-25T11:27:51.040Z,103003.31
2023-05-25T11:30:18.279Z,103008.88
2023-05-25T11:32:51.132Z,103001.63
2023-05-25T11:35:17.707Z,103007.75
2023-05-25T11:37:50.820Z,103011.94
2023-05-25T11:40:17.411Z,103005.75
2023-05-25T11:42:48.328Z,103008.50
2023-05-25T11:45:15.046Z,103004.66
2023-05-25T11:47:41.726Z,103007.81
2023-05-25T11:50:14.943Z,103004.44
2023-05-25T11:52:41.591Z,102990.91
2023-05-25T11:55:13.328Z,102999.84
2023-05-25T11:57:40.620Z,103000.94
2023-05-25T12:00:11.291Z,102991.63
2023-05-25T12:02:39.504Z,102980.16
2023-05-25T12:05:08.720Z,102991.66
2023-05-25T12:07:44.015Z,102984.53
2023-05-25T12:10:12.779Z,102991.44
2023-05-25T12:12:42.550Z,102980.63
2023-05-25T12:15:14.853Z,102981.25
2023-05-25T12:17:43.427Z,102977.94
2023-05-25T12:20:11.878Z,102978.97
2023-05-25T12:22:40.108Z,102972.97
2023-05-25T12:25:08.666Z,102970.94
2023-05-25T12:27:35.205Z,102975.28
2023-05-25T12:30:01.730Z,102978.94
2023-05-25T12:32:28.368Z,102982.53
2023-05-25T12:35:05.786Z,102973.94
2023-05-25T12:37:33.487Z,102984.59
2023-05-25T12:40:00.653Z,102983.47
2023-05-25T12:42:27.549Z,102988.16
2023-05-25T12:44:57.904Z,102976.13
2023-05-25T12:47:27.894Z,102984.97
2023-05-25T12:50:11.288Z,102992.69
2023-05-25T12:52:39.889Z,102988.94
2023-05-25T12:55:32.958Z,102978.03
2023-05-25T12:58:02.735Z,102986.06
2023-05-25T13:00:41.002Z,102983.75
2023-05-25T13:03:08.294Z,102974.09
2023-05-25T13:05:37.091Z,102971.56
2023-05-25T13:08:04.448Z,102971.97
2023-05-25T13:10:32.811Z,102968.56
2023-05-25T13:13:00.613Z,102967.19
2023-05-25T13:15:27.452Z,102976.84
2023-05-25T13:17:56.284Z,102956.31
2023-05-25T13:20:25.118Z,102955.84
2023-05-25T13:22:53.141Z,102948.78
2023-05-25T13:25:22.146Z,102948.00
2023-05-25T13:27:50.480Z,102957.31
2023-05-25T13:30:17.713Z,102951.81
2023-05-25T13:32:44.929Z,102950.47
2023-05-25T13:35:18.452Z,102956.69
2023-05-25T13:37:45.870Z,102954.75
2023-05-25T13:40:12.473Z,102955.03
2023-05-25T13:42:38.986Z,102950.09
2023-05-25T13:45:06.054Z,102955.59
2023-05-25T13:47:32.770Z,102944.38
2023-05-25T13:49:59.327Z,102942.84
2023-05-25T13:52:27.005Z,102937.03
2023-05-25T13:54:53.463Z,102937.41
2023-05-25T13:57:21.359Z,102942.81
2023-05-25T13:59:47.841Z,102933.06
2023-05-25T14:02:14.525Z,102936.63
2023-05-25T14:04:41.408Z,102934.66
2023-05-25T14:07:07.917Z,102926.41
2023-05-25T14:09:34.440Z,102929.22
2023-05-25T14:12:01.524Z,102928.19
2023-05-25T14:14:32.232Z,102931.81
2023-05-25T14:17:00.387Z,102929.13
2023-05-25T14:19:27.160Z,102931.09
2023-05-25T14:22:11.106Z,102923.66
2023-05-25T14:24:38.791Z,102925.81
2023-05-25T14:27:07.116Z,102927.03
2023-05-25T14:29:33.931Z,102925.03
2023-05-25T14:32:00.619Z,102926.97
2023-05-25T14:34:27.970Z,102923.56
2023-05-25T14:36:54.467Z,102906.16
2023-05-25T14:39:21.020Z,102912.78
2023-05-25T14:41:47.523Z,102919.03
2023-05-25T14:44:14.040Z,102909.19
2023-05-25T14:46:40.720Z,102903.13
2023-05-25T14:49:07.271Z,102908.34
2023-05-25T14:51:33.721Z,102917.88
2023-05-25T14:54:03.867Z,102913.34
2023-05-25T14:56:30.692Z,102916.56
2023-05-25T14:58:57.428Z,102919.59
2023-05-25T15:01:25.499Z,102914.50
2023-05-25T15:03:52.560Z,102919.59
2023-05-25T15:06:19.533Z,102910.69
2023-05-25T15:08:46.169Z,102910.78
2023-05-25T15:11:12.715Z,102909.34
2023-05-25T15:13:40.731Z,102909.94
2023-05-25T15:16:11.243Z,102910.69
2023-05-25T15:18:37.995Z,102902.94
2023-05-25T15:21:04.612Z,102910.03
2023-05-25T15:23:32.023Z,102908.72
2023-05-25T15:26:03.101Z,102903.16
2023-05-25T15:28:32.422Z,102898.31
2023-05-25T15:31:01.717Z,102907.22
2023-05-25T15:33:43.710Z,102911.16
2023-05-25T15:36:15.138Z,102901.22
2023-05-25T15:38:43.252Z,102905.75
2023-05-25T15:41:09.878Z,102902.88
2023-05-25T15:43:36.346Z,102890.84
2023-05-25T15:46:02.844Z,102899.06
2023-05-25T15:48:29.409Z,102890.53
2023-05-25T15:50:55.866Z,102897.59
2023-05-25T15:53:22.764Z,102893.63
2023-05-25T15:55:49.241Z,102899.41
2023-05-25T15:58:17.744Z,102899.44
2023-05-25T16:00:44.265Z,102887.66
2023-05-25T16:03:10.783Z,102888.75
2023-05-25T16:05:37.444Z,102894.97
2023-05-25T16:08:03.933Z,102895.84
2023-05-25T16:10:30.483Z,102897.16
2023-05-25T16:12:56.957Z,102900.13
2023-05-25T16:15:23.743Z,102886.13
2023-05-25T16:17:50.408Z,102892.66
2023-05-25T16:20:17.015Z,102895.38
2023-05-25T16:22:43.484Z,102901.63
2023-05-25T16:25:10.472Z,102898.03
2023-05-25T16:27:37.032Z,102888.78
2023-05-25T16:30:03.916Z,102891.34
2023-05-25T16:32:30.562Z,102904.75
2023-05-25T16:34:57.028Z,102904.00
2023-05-25T16:37:23.548Z,102911.63
2023-05-25T16:39:50.042Z,102904.81
2023-05-25T16:42:16.708Z,102903.69
2023-05-25T16:44:43.185Z,102896.13
2023-05-25T16:47:09.701Z,102903.50
2023-05-25T16:49:36.172Z,102900.34
2023-05-25T16:52:02.697Z,102900.41
2023-05-25T16:54:29.617Z,102893.88
2023-05-25T16:56:56.190Z,102901.44
2023-05-25T16:59:22.695Z,102899.91
2023-05-25T17:01:49.279Z,102899.41
2023-05-25T17:04:15.958Z,102900.28
2023-05-25T17:06:42.439Z,102905.16
2023-05-25T17:09:09.189Z,102911.72
2023-05-25T17:11:35.641Z,102905.97
2023-05-25T17:14:02.099Z,102906.22
2023-05-25T17:16:28.690Z,102900.16
2023-05-25T17:18:55.350Z,102902.81
2023-05-25T17:21:21.852Z,102906.28
2023-05-25T17:23:49.153Z,102910.44
2023-05-25T17:26:15.752Z,102910.28
2023-05-25T17:28:42.237Z,102913.59
2023-05-25T17:31:09.447Z,102909.31
2023-05-25T17:33:36.104Z,102918.88
2023-05-25T17:36:02.563Z,102918.31
2023-05-25T17:38:29.049Z,102911.25
2023-05-25T17:40:55.846Z,102913.72
2023-05-25T17:43:22.477Z,102919.00
2023-05-25T17:45:48.971Z,102906.00
2023-05-25T17:48:15.799Z,102915.22
2023-05-25T17:50:42.336Z,102913.31
2023-05-25T17:53:08.873Z,102919.47
2023-05-25T17:55:35.426Z,102916.56
2023-05-25T17:58:01.929Z,102923.69
2023-05-25T18:00:30.320Z,102929.44
2023-05-25T18:02:56.872Z,102925.31
2023-05-25T18:05:23.557Z,102927.50
2023-05-25T18:07:50.124Z,102925.44
2023-05-25T18:10:16.692Z,102940.69
2023-05-25T18:12:46.096Z,102950.69
2023-05-25T18:15:12.854Z,102938.16
2023-05-25T18:17:39.400Z,102942.75
2023-05-25T18:20:06.598Z,102953.94
2023-05-25T18:22:33.134Z,102947.81
2023-05-25T18:25:00.389Z,102942.19
2023-05-25T18:27:26.856Z,102941.75
2023-05-25T18:29:53.516Z,102949.03
2023-05-25T18:32:20.116Z,102952.16
2023-05-25T18:34:48.299Z,102943.84
2023-05-25T18:37:15.227Z,102948.63
2023-05-25T18:39:41.977Z,102953.56
2023-05-25T18:42:08.759Z,102951.81
2023-05-25T18:44:36.479Z,102953.81
2023-05-25T18:47:02.947Z,102952.31
2023-05-25T18:49:34.470Z,102951.16
2023-05-25T18:52:01.622Z,102963.75
2023-05-25T18:54:28.287Z,102963.91
2023-05-25T18:56:55.003Z,102964.47
2023-05-25T18:59:21.484Z,102974.00
2023-05-25T19:01:48.170Z,102966.28
2023-05-25T19:04:14.848Z,102966.72
2023-05-25T19:06:41.544Z,102960.91
2023-05-25T19:09:08.002Z,102959.34
2023-05-25T19:11:34.495Z,102963.22
2023-05-25T19:14:00.960Z,102969.41
2023-05-25T19:16:27.551Z,102965.09
2023-05-25T19:18:54.087Z,102974.81
2023-05-25T19:21:20.689Z,102968.19
2023-05-25T19:23:47.189Z,102974.56
2023-05-25T19:26:13.711Z,102983.63
2023-05-25T19:28:40.417Z,102988.25
2023-05-25T19:31:06.885Z,102991.19
2023-05-25T19:33:33.457Z,103000.31
2023-05-25T19:36:00.109Z,103005.75
2023-05-25T19:38:31.439Z,103001.72
2023-05-25T19:41:04.285Z,103017.66
2023-05-25T19:43:30.872Z,103008.13
2023-05-25T19:45:57.441Z,103010.03
2023-05-25T19:48:25.285Z,103017.94
2023-05-25T19:50:53.172Z,103015.72
2023-05-25T19:53:19.657Z,103009.84
2023-05-25T19:55:46.380Z,103005.72
2023-05-25T19:58:13.009Z,103014.63
2023-05-25T20:00:39.491Z,103016.41
2023-05-25T20:03:06.150Z,103020.09
2023-05-25T20:05:32.743Z,103018.59
2023-05-25T20:07:59.310Z,103021.56
2023-05-25T20:10:25.888Z,103036.56
2023-05-25T20:12:52.422Z,103029.75
2023-05-25T20:15:18.896Z,103047.56
2023-05-25T20:17:45.452Z,103050.28
2023-05-25T20:20:12.154Z,103046.09
2023-05-25T20:22:38.740Z,103047.19
2023-05-25T20:25:05.633Z,103050.78
2023-05-25T20:27:32.129Z,103046.69
2023-05-25T20:29:58.669Z,103055.56
2023-05-25T20:32:25.206Z,103047.81
2023-05-25T20:34:52.227Z,103061.00
2023-05-25T20:37:18.706Z,103063.72
2023-05-25T20:39:45.295Z,103055.19
2023-05-25T20:42:13.909Z,103054.47
2023-05-25T20:44:40.537Z,103053.72
2023-05-25T20:47:07.182Z,103055.56
2023-05-25T20:49:33.718Z,103061.81
2023-05-25T20:52:00.239Z,103068.22
2023-05-25T20:54:26.881Z,103074.50
2023-05-25T20:56:53.534Z,103078.25
2023-05-25T20:59:20.121Z,103072.34
2023-05-25T21:01:46.620Z,103068.16
2023-05-25T21:04:13.258Z,103072.69
2023-05-25T21:06:40.065Z,103073.81
2023-05-25T21:09:06.576Z,103071.44
2023-05-25T21:11:33.196Z,103075.84
2023-05-25T21:13:59.675Z,103080.44
2023-05-25T21:16:26.297Z,103077.13
2023-05-25T21:18:52.773Z,103077.13
2023-05-25T21:21:19.335Z,103079.13
2023-05-25T21:23:46.072Z,103080.81
2023-05-25T21:26:12.617Z,103075.66
2023-05-25T21:28:39.071Z,103086.22
2023-05-25T21:31:05.669Z,103081.22
2023-05-25T21:33:35.762Z,103082.16
2023-05-25T21:36:02.876Z,103085.78
2023-05-25T21:38:29.418Z,103092.25
2023-05-25T21:40:56.037Z,103084.50
2023-05-25T21:43:22.567Z,103083.72
2023-05-25T21:45:49.048Z,103085.44
2023-05-25T21:48:15.541Z,103093.41
2023-05-25T21:50:42.011Z,103089.13
2023-05-25T21:53:08.468Z,103095.41
2023-05-25T21:55:34.915Z,103092.97
2023-05-25T21:58:01.405Z,103094.75
2023-05-25T22:00:27.892Z,103093.91
2023-05-25T22:02:54.508Z,103091.34
2023-05-25T22:05:21.112Z,103096.72
2023-05-25T22:07:47.677Z,103097.72
2023-05-25T22:10:14.270Z,103097.88
2023-05-25T22:12:40.792Z,103102.47
2023-05-25T22:15:07.853Z,103104.31
2023-05-25T22:17:34.424Z,103101.00
2023-05-25T22:20:07.948Z,103099.50
2023-05-25T22:22:34.777Z,103097.81
2023-05-25T22:25:01.273Z,103103.19
2023-05-25T22:27:27.907Z,103098.03
2023-05-25T22:29:54.378Z,103093.66
2023-05-25T22:32:21.041Z,103102.28
2023-05-25T22:34:47.591Z,103096.34
2023-05-25T22:37:14.219Z,103097.38
2023-05-25T22:39:40.683Z,103094.06
2023-05-25T22:42:07.338Z,103095.81
2023-05-25T22:44:36.031Z,103086.25
2023-05-25T22:47:03.012Z,103091.56
2023-05-25T22:49:29.608Z,103093.41
2023-05-25T22:51:56.147Z,103095.22
2023-05-25T22:54:22.576Z,103093.59
2023-05-25T22:56:49.047Z,103099.66
2023-05-25T22:59:15.827Z,103092.81
2023-05-25T23:01:42.617Z,103101.56
2023-05-25T23:04:09.313Z,103098.94
2023-05-25T23:06:36.573Z,103096.47
2023-05-25T23:09:03.177Z,103106.06
2023-05-25T23:11:29.623Z,103098.28
2023-05-25T23:13:56.077Z,103089.75
2023-05-25T23:16:22.708Z,103090.72
2023-05-25T23:18:49.278Z,103101.19
2023-05-25T23:21:16.180Z,103095.13
2023-05-25T23:23:42.686Z,103096.97
2023-05-25T23:26:09.153Z,103089.97
2023-05-25T23:28:35.775Z,103099.63
2023-05-25T23:31:02.307Z,103092.78
2023-05-25T23:33:29.313Z,103101.50
2023-05-25T23:35:55.968Z,103098.09
2023-05-25T23:38:22.512Z,103103.41
2023-05-25T23:40:48.970Z,103110.47
2023-05-25T23:43:16.312Z,103102.72
2023-05-25T23:45:43.115Z,103114.00
2023-05-25T23:48:09.825Z,103120.16
2023-05-25T23:50:36.414Z,103123.69
2023-05-25T23:53:02.956Z,103112.41
2023-05-25T23:55:30.592Z,103116.91
2023-05-25T23:57:57.057Z,103112.59
